Overview Statistics Trail Chart Weather Telemetry Raw packets
 

This is the latest recevied weather packets stored in our database for station/object K6GMW. If no packets are shown the sender has not sent any weather packets the latest 10 day(s).

<< 104 105 106 107 108 109 110 >>
Time Temp. Humidity Pressure Rain* Wind** Luminosity Snow
1787844679 27.22° C 77% 1017.8 hPa 0 mm - 431 W/m² -
1787844379 27.22° C 77% 1017.6 hPa 0 mm - 354 W/m² -
1787844078 26.67° C 80% 1017.7 hPa 0 mm - 765 W/m² -
1787843773 26.11° C 81% 1017.6 hPa 0 mm - 359 W/m² -
1787843469 26.11° C 80% 1017.6 hPa 0 mm - 292 W/m² -
1787843171 27.22° C 78% 1017.5 hPa 0 mm - 247 W/m² -
1787842865 27.78° C 76% 1017.5 hPa 0 mm - 356 W/m² -
1787842560 27.22° C 78% 1017.4 hPa 0 mm - 621 W/m² -
1787842259 27.22° C 78% 1017.6 hPa 0 mm - 439 W/m² -
1787841954 27.78° C 77% 1017.6 hPa 0 mm - 521 W/m² -
1787841650 27.22° C 78% 1017.6 hPa 0 mm - 526 W/m² -
1787841349 27.22° C 79% 1017.5 hPa 0 mm - 285 W/m² -
1787841044 26.67° C 80% 1017.4 hPa 0 mm - 584 W/m² -
1787840739 26.11° C 83% 1017.5 hPa 0 mm - 293 W/m² -
1787840435 25.56° C 83% 1017.4 hPa 0 mm - 330 W/m² -
1787840130 25.56° C 83% 1017.5 hPa 0 mm - 228 W/m² -
1787839829 25.56° C 82% 1017.2 hPa 0 mm - 238 W/m² -
1787839525 26.11° C 81% 1017.2 hPa 0 mm - 218 W/m² -
1787839224 26.11° C 81% 1017.3 hPa 0 mm - 220 W/m² -
1787838924 26.11° C 82% 1017.1 hPa 0 mm - 156 W/m² -
1787838618 25.56° C 84% 1017 hPa 0 mm - 268 W/m² -
1787838317 25.56° C 85% 1016.9 hPa 0 mm - 301 W/m² -
1787838016 25° C 86% 1016.9 hPa 0 mm - 268 W/m² -
1787837716 24.44° C 88% 1016.7 hPa 0 mm - 224 W/m² -
1787837411 24.44° C 89% 1016.9 hPa 0 mm - 182 W/m² -

* Rain latest hour (hover to see other rain measurements)
** Current wind speed in m/s (hover to see current wind gust speed)